sensor_id;sensor_type;location;lat;lon;timestamp;P1;durP1;ratioP1;P2;durP2;ratioP2
71048;SDS011;58704;53.358;-6.238;2023-04-24T00:00:04;20.53;;;12.00;;
71048;SDS011;58704;53.358;-6.238;2023-04-24T00:02:31;16.20;;;10.75;;
71048;SDS011;58704;53.358;-6.238;2023-04-24T00:04:57;17.40;;;10.85;;
71048;SDS011;58704;53.358;-6.238;2023-04-24T00:07:27;16.27;;;10.60;;
71048;SDS011;58704;53.358;-6.238;2023-04-24T00:09:52;18.10;;;11.13;;
71048;SDS011;58704;53.358;-6.238;2023-04-24T00:12:19;16.55;;;10.70;;
71048;SDS011;58704;53.358;-6.238;2023-04-24T00:14:45;15.30;;;10.27;;
71048;SDS011;58704;53.358;-6.238;2023-04-24T00:17:10;15.60;;;9.70;;
71048;SDS011;58704;53.358;-6.238;2023-04-24T00:19:35;15.97;;;9.53;;
71048;SDS011;58704;53.358;-6.238;2023-04-24T00:22:01;13.57;;;9.57;;
71048;SDS011;58704;53.358;-6.238;2023-04-24T00:24:27;14.43;;;9.80;;
71048;SDS011;58704;53.358;-6.238;2023-04-24T00:26:52;16.83;;;10.17;;
71048;SDS011;58704;53.358;-6.238;2023-04-24T00:29:18;18.77;;;9.20;;
71048;SDS011;58704;53.358;-6.238;2023-04-24T00:31:43;11.50;;;8.40;;
71048;SDS011;58704;53.358;-6.238;2023-04-24T00:34:09;12.20;;;8.60;;
71048;SDS011;58704;53.358;-6.238;2023-04-24T00:36:35;14.35;;;8.73;;
71048;SDS011;58704;53.358;-6.238;2023-04-24T00:39:00;11.33;;;7.60;;
71048;SDS011;58704;53.358;-6.238;2023-04-24T00:41:26;12.10;;;8.03;;
71048;SDS011;58704;53.358;-6.238;2023-04-24T00:43:52;13.57;;;8.00;;
71048;SDS011;58704;53.358;-6.238;2023-04-24T00:46:17;12.38;;;7.15;;
71048;SDS011;58704;53.358;-6.238;2023-04-24T00:48:43;12.63;;;8.13;;
71048;SDS011;58704;53.358;-6.238;2023-04-24T00:51:08;12.80;;;7.33;;
71048;SDS011;58704;53.358;-6.238;2023-04-24T00:53:33;12.60;;;6.90;;
71048;SDS011;58704;53.358;-6.238;2023-04-24T00:55:59;12.77;;;7.35;;
71048;SDS011;58704;53.358;-6.238;2023-04-24T00:58:25;13.60;;;6.73;;
71048;SDS011;58704;53.358;-6.238;2023-04-24T01:00:51;14.70;;;6.90;;
71048;SDS011;58704;53.358;-6.238;2023-04-24T01:03:18;13.02;;;6.80;;
71048;SDS011;58704;53.358;-6.238;2023-04-24T01:05:47;13.15;;;6.93;;
71048;SDS011;58704;53.358;-6.238;2023-04-24T01:08:14;11.07;;;7.07;;
71048;SDS011;58704;53.358;-6.238;2023-04-24T01:10:40;10.48;;;6.57;;
71048;SDS011;58704;53.358;-6.238;2023-04-24T01:13:07;11.13;;;6.47;;
71048;SDS011;58704;53.358;-6.238;2023-04-24T01:15:33;11.00;;;6.63;;
71048;SDS011;58704;53.358;-6.238;2023-04-24T01:17:59;10.13;;;6.22;;
71048;SDS011;58704;53.358;-6.238;2023-04-24T01:20:24;11.83;;;5.80;;
71048;SDS011;58704;53.358;-6.238;2023-04-24T01:22:51;10.75;;;5.80;;
71048;SDS011;58704;53.358;-6.238;2023-04-24T01:25:17;10.98;;;6.15;;
71048;SDS011;58704;53.358;-6.238;2023-04-24T01:27:43;11.83;;;6.43;;
71048;SDS011;58704;53.358;-6.238;2023-04-24T01:30:08;13.70;;;6.47;;
71048;SDS011;58704;53.358;-6.238;2023-04-24T01:32:35;13.13;;;6.38;;
71048;SDS011;58704;53.358;-6.238;2023-04-24T01:35:00;11.52;;;6.13;;
71048;SDS011;58704;53.358;-6.238;2023-04-24T01:37:26;12.87;;;5.70;;
71048;SDS011;58704;53.358;-6.238;2023-04-24T01:39:51;14.40;;;6.70;;
71048;SDS011;58704;53.358;-6.238;2023-04-24T01:42:17;13.37;;;6.90;;
71048;SDS011;58704;53.358;-6.238;2023-04-24T01:44:42;11.00;;;6.47;;
71048;SDS011;58704;53.358;-6.238;2023-04-24T01:47:08;12.30;;;6.15;;
71048;SDS011;58704;53.358;-6.238;2023-04-24T01:49:34;13.50;;;5.87;;
71048;SDS011;58704;53.358;-6.238;2023-04-24T01:51:59;13.53;;;6.53;;
71048;SDS011;58704;53.358;-6.238;2023-04-24T01:54:24;12.93;;;5.37;;
71048;SDS011;58704;53.358;-6.238;2023-04-24T01:56:50;16.58;;;6.20;;
71048;SDS011;58704;53.358;-6.238;2023-04-24T01:59:16;11.73;;;5.47;;
71048;SDS011;58704;53.358;-6.238;2023-04-24T02:01:42;11.77;;;5.75;;
71048;SDS011;58704;53.358;-6.238;2023-04-24T02:04:07;11.10;;;5.43;;
71048;SDS011;58704;53.358;-6.238;2023-04-24T02:06:33;15.05;;;6.72;;
71048;SDS011;58704;53.358;-6.238;2023-04-24T02:08:59;14.07;;;5.50;;
71048;SDS011;58704;53.358;-6.238;2023-04-24T02:11:25;11.20;;;5.95;;
71048;SDS011;58704;53.358;-6.238;2023-04-24T02:13:50;10.68;;;6.40;;
71048;SDS011;58704;53.358;-6.238;2023-04-24T02:16:16;11.67;;;6.10;;
71048;SDS011;58704;53.358;-6.238;2023-04-24T02:18:42;13.52;;;5.80;;
71048;SDS011;58704;53.358;-6.238;2023-04-24T02:21:07;14.40;;;6.27;;
71048;SDS011;58704;53.358;-6.238;2023-04-24T02:23:33;10.20;;;6.00;;
71048;SDS011;58704;53.358;-6.238;2023-04-24T02:25:58;11.88;;;6.07;;
71048;SDS011;58704;53.358;-6.238;2023-04-24T02:28:24;13.53;;;6.50;;
71048;SDS011;58704;53.358;-6.238;2023-04-24T02:30:49;12.53;;;5.33;;
71048;SDS011;58704;53.358;-6.238;2023-04-24T02:33:15;17.35;;;5.93;;
71048;SDS011;58704;53.358;-6.238;2023-04-24T02:35:41;10.27;;;5.60;;
71048;SDS011;58704;53.358;-6.238;2023-04-24T02:38:06;10.17;;;6.70;;
71048;SDS011;58704;53.358;-6.238;2023-04-24T02:40:31;11.80;;;5.90;;
71048;SDS011;58704;53.358;-6.238;2023-04-24T02:42:57;9.40;;;6.13;;
71048;SDS011;58704;53.358;-6.238;2023-04-24T02:45:22;12.10;;;6.07;;
71048;SDS011;58704;53.358;-6.238;2023-04-24T02:47:48;15.37;;;6.57;;
71048;SDS011;58704;53.358;-6.238;2023-04-24T02:50:13;16.00;;;9.40;;
71048;SDS011;58704;53.358;-6.238;2023-04-24T02:52:38;19.10;;;11.30;;
71048;SDS011;58704;53.358;-6.238;2023-04-24T02:55:04;21.87;;;11.03;;
71048;SDS011;58704;53.358;-6.238;2023-04-24T02:57:30;20.88;;;10.95;;
71048;SDS011;58704;53.358;-6.238;2023-04-24T02:59:55;19.97;;;11.23;;
71048;SDS011;58704;53.358;-6.238;2023-04-24T03:02:21;19.80;;;10.63;;
71048;SDS011;58704;53.358;-6.238;2023-04-24T03:04:46;19.23;;;10.40;;
71048;SDS011;58704;53.358;-6.238;2023-04-24T03:07:13;19.80;;;11.00;;
71048;SDS011;58704;53.358;-6.238;2023-04-24T03:09:39;22.10;;;10.55;;
71048;SDS011;58704;53.358;-6.238;2023-04-24T03:12:05;19.55;;;10.07;;
71048;SDS011;58704;53.358;-6.238;2023-04-24T03:14:30;20.73;;;10.47;;
71048;SDS011;58704;53.358;-6.238;2023-04-24T03:16:56;16.70;;;8.53;;
71048;SDS011;58704;53.358;-6.238;2023-04-24T03:19:21;17.85;;;8.82;;
71048;SDS011;58704;53.358;-6.238;2023-04-24T03:21:47;19.10;;;8.63;;
71048;SDS011;58704;53.358;-6.238;2023-04-24T03:24:14;15.55;;;9.70;;
71048;SDS011;58704;53.358;-6.238;2023-04-24T03:26:39;15.63;;;8.93;;
71048;SDS011;58704;53.358;-6.238;2023-04-24T03:29:05;22.70;;;9.93;;
71048;SDS011;58704;53.358;-6.238;2023-04-24T03:31:30;18.10;;;8.53;;
71048;SDS011;58704;53.358;-6.238;2023-04-24T03:33:55;13.75;;;8.13;;
71048;SDS011;58704;53.358;-6.238;2023-04-24T03:36:22;15.27;;;7.90;;
71048;SDS011;58704;53.358;-6.238;2023-04-24T03:38:47;18.05;;;10.82;;
71048;SDS011;58704;53.358;-6.238;2023-04-24T03:41:14;28.77;;;10.93;;
71048;SDS011;58704;53.358;-6.238;2023-04-24T03:43:40;10.40;;;6.00;;
71048;SDS011;58704;53.358;-6.238;2023-04-24T03:46:05;11.30;;;4.60;;
71048;SDS011;58704;53.358;-6.238;2023-04-24T03:48:34;9.07;;;4.60;;
71048;SDS011;58704;53.358;-6.238;2023-04-24T03:51:00;9.98;;;3.75;;
71048;SDS011;58704;53.358;-6.238;2023-04-24T03:53:25;8.20;;;3.93;;
71048;SDS011;58704;53.358;-6.238;2023-04-24T03:55:51;8.77;;;3.88;;
71048;SDS011;58704;53.358;-6.238;2023-04-24T03:58:18;9.10;;;3.88;;
71048;SDS011;58704;53.358;-6.238;2023-04-24T04:00:43;7.03;;;3.80;;
71048;SDS011;58704;53.358;-6.238;2023-04-24T04:03:09;9.60;;;4.25;;
71048;SDS011;58704;53.358;-6.238;2023-04-24T04:05:35;8.23;;;4.68;;
71048;SDS011;58704;53.358;-6.238;2023-04-24T04:08:00;8.37;;;3.80;;
71048;SDS011;58704;53.358;-6.238;2023-04-24T04:10:27;8.68;;;3.30;;
71048;SDS011;58704;53.358;-6.238;2023-04-24T04:12:52;10.90;;;3.30;;
71048;SDS011;58704;53.358;-6.238;2023-04-24T04:15:18;5.82;;;3.15;;
71048;SDS011;58704;53.358;-6.238;2023-04-24T04:17:43;5.73;;;2.40;;
71048;SDS011;58704;53.358;-6.238;2023-04-24T04:26:40;6.90;;;2.70;;
71048;SDS011;58704;53.358;-6.238;2023-04-24T04:30:03;5.43;;;2.00;;
71048;SDS011;58704;53.358;-6.238;2023-04-24T04:36:49;9.77;;;2.58;;
71048;SDS011;58704;53.358;-6.238;2023-04-24T04:40:11;8.32;;;2.30;;
71048;SDS011;58704;53.358;-6.238;2023-04-24T04:43:37;6.82;;;2.40;;
71048;SDS011;58704;53.358;-6.238;2023-04-24T04:49:25;12.02;;;2.55;;
71048;SDS011;58704;53.358;-6.238;2023-04-24T04:52:26;9.05;;;2.67;;
71048;SDS011;58704;53.358;-6.238;2023-04-24T04:55:00;14.43;;;2.50;;
71048;SDS011;58704;53.358;-6.238;2023-04-24T04:57:41;8.52;;;2.38;;
71048;SDS011;58704;53.358;-6.238;2023-04-24T05:03:20;8.70;;;2.30;;
71048;SDS011;58704;53.358;-6.238;2023-04-24T05:06:29;8.02;;;2.50;;
71048;SDS011;58704;53.358;-6.238;2023-04-24T05:09:03;12.95;;;3.10;;
71048;SDS011;58704;53.358;-6.238;2023-04-24T05:11:47;11.95;;;2.67;;
71048;SDS011;58704;53.358;-6.238;2023-04-24T05:14:12;10.10;;;2.03;;
71048;SDS011;58704;53.358;-6.238;2023-04-24T05:16:38;9.98;;;2.17;;
71048;SDS011;58704;53.358;-6.238;2023-04-24T05:19:05;7.88;;;2.10;;
71048;SDS011;58704;53.358;-6.238;2023-04-24T05:21:32;11.43;;;2.50;;
71048;SDS011;58704;53.358;-6.238;2023-04-24T05:23:57;11.40;;;1.98;;
71048;SDS011;58704;53.358;-6.238;2023-04-24T05:26:22;14.80;;;3.13;;
71048;SDS011;58704;53.358;-6.238;2023-04-24T05:28:48;11.57;;;2.23;;
71048;SDS011;58704;53.358;-6.238;2023-04-24T05:31:13;13.27;;;2.47;;
71048;SDS011;58704;53.358;-6.238;2023-04-24T05:33:39;9.35;;;2.08;;
71048;SDS011;58704;53.358;-6.238;2023-04-24T05:36:05;7.20;;;2.10;;
71048;SDS011;58704;53.358;-6.238;2023-04-24T05:38:31;7.15;;;2.33;;
71048;SDS011;58704;53.358;-6.238;2023-04-24T05:40:56;7.03;;;1.70;;
71048;SDS011;58704;53.358;-6.238;2023-04-24T05:43:22;17.03;;;2.90;;
71048;SDS011;58704;53.358;-6.238;2023-04-24T05:45:47;11.70;;;2.30;;
71048;SDS011;58704;53.358;-6.238;2023-04-24T05:48:13;12.40;;;2.10;;
71048;SDS011;58704;53.358;-6.238;2023-04-24T05:50:38;8.03;;;1.90;;
71048;SDS011;58704;53.358;-6.238;2023-04-24T05:53:04;17.27;;;2.67;;
71048;SDS011;58704;53.358;-6.238;2023-04-24T05:55:31;8.00;;;1.90;;
71048;SDS011;58704;53.358;-6.238;2023-04-24T05:57:57;8.70;;;2.30;;
71048;SDS011;58704;53.358;-6.238;2023-04-24T06:00:23;9.37;;;1.97;;
71048;SDS011;58704;53.358;-6.238;2023-04-24T06:02:49;11.13;;;1.95;;
71048;SDS011;58704;53.358;-6.238;2023-04-24T06:05:15;7.60;;;1.80;;
71048;SDS011;58704;53.358;-6.238;2023-04-24T06:07:40;5.23;;;1.70;;
71048;SDS011;58704;53.358;-6.238;2023-04-24T06:10:06;8.85;;;2.58;;
71048;SDS011;58704;53.358;-6.238;2023-04-24T06:12:32;7.78;;;2.10;;
71048;SDS011;58704;53.358;-6.238;2023-04-24T06:14:58;13.57;;;2.50;;
71048;SDS011;58704;53.358;-6.238;2023-04-24T06:17:24;9.57;;;2.35;;
71048;SDS011;58704;53.358;-6.238;2023-04-24T06:19:49;11.13;;;2.70;;
71048;SDS011;58704;53.358;-6.238;2023-04-24T06:22:15;8.43;;;2.47;;
71048;SDS011;58704;53.358;-6.238;2023-04-24T06:24:40;12.43;;;2.50;;
71048;SDS011;58704;53.358;-6.238;2023-04-24T06:27:06;5.10;;;2.50;;
71048;SDS011;58704;53.358;-6.238;2023-04-24T06:29:33;6.25;;;1.98;;
71048;SDS011;58704;53.358;-6.238;2023-04-24T06:32:00;6.18;;;1.88;;
71048;SDS011;58704;53.358;-6.238;2023-04-24T06:34:25;9.53;;;2.47;;
71048;SDS011;58704;53.358;-6.238;2023-04-24T06:36:51;7.30;;;1.98;;
71048;SDS011;58704;53.358;-6.238;2023-04-24T06:39:19;6.60;;;1.67;;
71048;SDS011;58704;53.358;-6.238;2023-04-24T06:45:02;6.65;;;2.00;;
71048;SDS011;58704;53.358;-6.238;2023-04-24T06:47:28;3.83;;;1.35;;
71048;SDS011;58704;53.358;-6.238;2023-04-24T07:25:31;7.43;;;1.35;;
71048;SDS011;58704;53.358;-6.238;2023-04-24T07:32:21;7.23;;;1.97;;
71048;SDS011;58704;53.358;-6.238;2023-04-24T07:48:09;9.63;;;1.63;;
71048;SDS011;58704;53.358;-6.238;2023-04-24T07:53:48;9.30;;;1.73;;
71048;SDS011;58704;53.358;-6.238;2023-04-24T07:59:29;7.75;;;1.70;;
71048;SDS011;58704;53.358;-6.238;2023-04-24T08:04:33;7.80;;;1.98;;
71048;SDS011;58704;53.358;-6.238;2023-04-24T08:07:16;5.70;;;1.80;;
71048;SDS011;58704;53.358;-6.238;2023-04-24T08:10:22;7.45;;;1.85;;
71048;SDS011;58704;53.358;-6.238;2023-04-24T08:12:51;7.50;;;2.05;;
71048;SDS011;58704;53.358;-6.238;2023-04-24T08:19:36;6.30;;;1.65;;
71048;SDS011;58704;53.358;-6.238;2023-04-24T08:59:45;10.95;;;2.65;;
71048;SDS011;58704;53.358;-6.238;2023-04-24T09:02:57;9.95;;;1.50;;
71048;SDS011;58704;53.358;-6.238;2023-04-24T09:05:59;8.90;;;2.00;;
71048;SDS011;58704;53.358;-6.238;2023-04-24T09:21:19;3.92;;;1.63;;
71048;SDS011;58704;53.358;-6.238;2023-04-24T09:56:39;8.27;;;1.70;;
71048;SDS011;58704;53.358;-6.238;2023-04-24T10:10:12;8.88;;;1.80;;
71048;SDS011;58704;53.358;-6.238;2023-04-24T10:15:35;7.93;;;2.15;;
71048;SDS011;58704;53.358;-6.238;2023-04-24T10:18:02;5.60;;;1.90;;
71048;SDS011;58704;53.358;-6.238;2023-04-24T10:20:32;9.07;;;2.15;;
71048;SDS011;58704;53.358;-6.238;2023-04-24T10:22:59;10.27;;;2.35;;
71048;SDS011;58704;53.358;-6.238;2023-04-24T10:25:29;5.77;;;2.10;;
71048;SDS011;58704;53.358;-6.238;2023-04-24T10:27:56;5.97;;;1.85;;
71048;SDS011;58704;53.358;-6.238;2023-04-24T10:30:24;4.80;;;1.95;;
71048;SDS011;58704;53.358;-6.238;2023-04-24T10:32:50;5.65;;;1.75;;
71048;SDS011;58704;53.358;-6.238;2023-04-24T10:35:16;5.30;;;2.03;;
71048;SDS011;58704;53.358;-6.238;2023-04-24T10:37:46;7.05;;;2.05;;
71048;SDS011;58704;53.358;-6.238;2023-04-24T10:40:17;10.02;;;1.77;;
71048;SDS011;58704;53.358;-6.238;2023-04-24T10:42:46;4.43;;;2.10;;
71048;SDS011;58704;53.358;-6.238;2023-04-24T10:45:19;5.30;;;2.25;;
71048;SDS011;58704;53.358;-6.238;2023-04-24T10:47:56;8.80;;;3.25;;
71048;SDS011;58704;53.358;-6.238;2023-04-24T10:50:30;5.78;;;1.95;;
71048;SDS011;58704;53.358;-6.238;2023-04-24T10:53:16;8.45;;;2.00;;
71048;SDS011;58704;53.358;-6.238;2023-04-24T10:55:48;4.03;;;1.47;;
71048;SDS011;58704;53.358;-6.238;2023-04-24T10:58:23;6.57;;;1.80;;
71048;SDS011;58704;53.358;-6.238;2023-04-24T11:00:56;6.85;;;2.05;;
71048;SDS011;58704;53.358;-6.238;2023-04-24T11:03:24;9.73;;;2.05;;
71048;SDS011;58704;53.358;-6.238;2023-04-24T11:05:57;7.45;;;1.67;;
71048;SDS011;58704;53.358;-6.238;2023-04-24T11:08:28;6.17;;;1.77;;
71048;SDS011;58704;53.358;-6.238;2023-04-24T11:10:58;3.35;;;1.58;;
71048;SDS011;58704;53.358;-6.238;2023-04-24T11:13:24;6.03;;;1.73;;
71048;SDS011;58704;53.358;-6.238;2023-04-24T11:18:39;9.75;;;1.90;;
71048;SDS011;58704;53.358;-6.238;2023-04-24T11:21:12;7.90;;;1.73;;
71048;SDS011;58704;53.358;-6.238;2023-04-24T11:23:39;10.60;;;2.10;;
71048;SDS011;58704;53.358;-6.238;2023-04-24T11:26:21;8.75;;;2.22;;
71048;SDS011;58704;53.358;-6.238;2023-04-24T11:28:49;6.90;;;1.67;;
71048;SDS011;58704;53.358;-6.238;2023-04-24T11:31:34;6.05;;;1.67;;
71048;SDS011;58704;53.358;-6.238;2023-04-24T11:34:13;6.23;;;1.80;;
71048;SDS011;58704;53.358;-6.238;2023-04-24T11:36:39;7.72;;;2.25;;
71048;SDS011;58704;53.358;-6.238;2023-04-24T11:39:05;9.07;;;2.05;;
71048;SDS011;58704;53.358;-6.238;2023-04-24T11:41:31;8.45;;;1.90;;
71048;SDS011;58704;53.358;-6.238;2023-04-24T11:43:58;8.23;;;2.17;;
71048;SDS011;58704;53.358;-6.238;2023-04-24T11:46:27;5.90;;;2.03;;
71048;SDS011;58704;53.358;-6.238;2023-04-24T11:48:53;7.40;;;2.22;;
71048;SDS011;58704;53.358;-6.238;2023-04-24T11:51:19;7.43;;;1.80;;
71048;SDS011;58704;53.358;-6.238;2023-04-24T11:53:44;5.83;;;2.30;;
71048;SDS011;58704;53.358;-6.238;2023-04-24T11:56:10;6.97;;;1.80;;
71048;SDS011;58704;53.358;-6.238;2023-04-24T11:58:35;4.90;;;2.00;;
71048;SDS011;58704;53.358;-6.238;2023-04-24T12:01:03;9.73;;;2.13;;
71048;SDS011;58704;53.358;-6.238;2023-04-24T12:03:29;4.75;;;2.15;;
71048;SDS011;58704;53.358;-6.238;2023-04-24T12:08:36;7.53;;;2.22;;
71048;SDS011;58704;53.358;-6.238;2023-04-24T12:11:02;9.90;;;1.67;;
71048;SDS011;58704;53.358;-6.238;2023-04-24T12:13:28;8.20;;;1.90;;
71048;SDS011;58704;53.358;-6.238;2023-04-24T12:15:54;10.60;;;2.17;;
71048;SDS011;58704;53.358;-6.238;2023-04-24T12:18:23;8.52;;;1.73;;
71048;SDS011;58704;53.358;-6.238;2023-04-24T12:20:49;7.88;;;1.70;;
71048;SDS011;58704;53.358;-6.238;2023-04-24T12:23:15;4.93;;;1.70;;
71048;SDS011;58704;53.358;-6.238;2023-04-24T12:25:41;6.07;;;2.00;;
71048;SDS011;58704;53.358;-6.238;2023-04-24T12:30:38;4.15;;;1.58;;
71048;SDS011;58704;53.358;-6.238;2023-04-24T12:33:09;8.00;;;2.35;;
71048;SDS011;58704;53.358;-6.238;2023-04-24T12:35:35;6.60;;;2.17;;
71048;SDS011;58704;53.358;-6.238;2023-04-24T12:38:07;6.47;;;1.70;;
71048;SDS011;58704;53.358;-6.238;2023-04-24T12:40:34;6.22;;;1.80;;
71048;SDS011;58704;53.358;-6.238;2023-04-24T12:42:59;7.13;;;2.07;;
71048;SDS011;58704;53.358;-6.238;2023-04-24T12:45:25;9.87;;;2.40;;
71048;SDS011;58704;53.358;-6.238;2023-04-24T12:47:52;7.10;;;2.13;;
71048;SDS011;58704;53.358;-6.238;2023-04-24T12:50:17;8.73;;;2.00;;
71048;SDS011;58704;53.358;-6.238;2023-04-24T12:52:43;10.75;;;2.30;;
71048;SDS011;58704;53.358;-6.238;2023-04-24T12:55:08;6.27;;;1.80;;
71048;SDS011;58704;53.358;-6.238;2023-04-24T12:57:35;7.43;;;1.83;;
71048;SDS011;58704;53.358;-6.238;2023-04-24T13:00:01;5.07;;;1.93;;
71048;SDS011;58704;53.358;-6.238;2023-04-24T13:02:28;5.18;;;2.05;;
71048;SDS011;58704;53.358;-6.238;2023-04-24T13:04:56;8.20;;;1.80;;
71048;SDS011;58704;53.358;-6.238;2023-04-24T13:07:21;7.43;;;2.17;;
71048;SDS011;58704;53.358;-6.238;2023-04-24T13:09:47;6.50;;;1.90;;
71048;SDS011;58704;53.358;-6.238;2023-04-24T13:12:14;7.65;;;1.80;;
71048;SDS011;58704;53.358;-6.238;2023-04-24T13:14:39;8.60;;;1.90;;
71048;SDS011;58704;53.358;-6.238;2023-04-24T13:17:04;7.77;;;1.73;;
71048;SDS011;58704;53.358;-6.238;2023-04-24T13:19:34;6.95;;;1.77;;
71048;SDS011;58704;53.358;-6.238;2023-04-24T13:22:00;6.85;;;1.98;;
71048;SDS011;58704;53.358;-6.238;2023-04-24T13:24:26;7.63;;;2.07;;
71048;SDS011;58704;53.358;-6.238;2023-04-24T13:26:52;8.63;;;2.00;;
71048;SDS011;58704;53.358;-6.238;2023-04-24T13:29:17;8.93;;;1.90;;
71048;SDS011;58704;53.358;-6.238;2023-04-24T13:31:43;6.83;;;1.50;;
71048;SDS011;58704;53.358;-6.238;2023-04-24T13:34:09;7.28;;;2.22;;
71048;SDS011;58704;53.358;-6.238;2023-04-24T13:36:34;9.63;;;1.80;;
71048;SDS011;58704;53.358;-6.238;2023-04-24T13:39:00;9.65;;;2.28;;
71048;SDS011;58704;53.358;-6.238;2023-04-24T13:41:26;6.40;;;2.20;;
71048;SDS011;58704;53.358;-6.238;2023-04-24T13:43:51;4.90;;;1.45;;
71048;SDS011;58704;53.358;-6.238;2023-04-24T13:46:17;10.50;;;1.90;;
71048;SDS011;58704;53.358;-6.238;2023-04-24T13:48:42;9.97;;;2.23;;
71048;SDS011;58704;53.358;-6.238;2023-04-24T13:51:08;8.93;;;1.83;;
71048;SDS011;58704;53.358;-6.238;2023-04-24T13:53:34;8.93;;;2.30;;
71048;SDS011;58704;53.358;-6.238;2023-04-24T13:56:03;5.47;;;1.77;;
71048;SDS011;58704;53.358;-6.238;2023-04-24T13:58:28;8.40;;;2.00;;
71048;SDS011;58704;53.358;-6.238;2023-04-24T14:00:54;6.90;;;1.93;;
71048;SDS011;58704;53.358;-6.238;2023-04-24T14:03:20;5.22;;;1.80;;
71048;SDS011;58704;53.358;-6.238;2023-04-24T14:05:45;7.70;;;1.70;;
71048;SDS011;58704;53.358;-6.238;2023-04-24T14:08:11;6.38;;;2.15;;
71048;SDS011;58704;53.358;-6.238;2023-04-24T14:10:36;5.63;;;2.03;;
71048;SDS011;58704;53.358;-6.238;2023-04-24T14:13:02;6.78;;;2.20;;
71048;SDS011;58704;53.358;-6.238;2023-04-24T14:15:28;6.37;;;2.07;;
71048;SDS011;58704;53.358;-6.238;2023-04-24T14:17:55;7.53;;;1.67;;
71048;SDS011;58704;53.358;-6.238;2023-04-24T14:20:20;3.78;;;1.77;;
71048;SDS011;58704;53.358;-6.238;2023-04-24T14:22:45;8.43;;;2.20;;
71048;SDS011;58704;53.358;-6.238;2023-04-24T14:25:11;6.72;;;2.00;;
71048;SDS011;58704;53.358;-6.238;2023-04-24T14:27:36;5.83;;;2.50;;
71048;SDS011;58704;53.358;-6.238;2023-04-24T14:30:02;7.40;;;1.80;;
71048;SDS011;58704;53.358;-6.238;2023-04-24T14:32:29;7.15;;;1.60;;
71048;SDS011;58704;53.358;-6.238;2023-04-24T14:34:56;5.40;;;2.00;;
71048;SDS011;58704;53.358;-6.238;2023-04-24T14:37:21;5.17;;;2.03;;
71048;SDS011;58704;53.358;-6.238;2023-04-24T14:39:47;5.67;;;2.03;;
71048;SDS011;58704;53.358;-6.238;2023-04-24T14:42:13;4.75;;;2.05;;
71048;SDS011;58704;53.358;-6.238;2023-04-24T14:44:39;6.25;;;2.35;;
71048;SDS011;58704;53.358;-6.238;2023-04-24T14:47:04;6.23;;;2.00;;
71048;SDS011;58704;53.358;-6.238;2023-04-24T14:49:30;8.23;;;2.28;;
71048;SDS011;58704;53.358;-6.238;2023-04-24T14:51:56;9.33;;;2.20;;
71048;SDS011;58704;53.358;-6.238;2023-04-24T14:54:21;10.38;;;2.28;;
71048;SDS011;58704;53.358;-6.238;2023-04-24T14:56:48;7.00;;;1.80;;
71048;SDS011;58704;53.358;-6.238;2023-04-24T14:59:14;6.65;;;2.03;;
71048;SDS011;58704;53.358;-6.238;2023-04-24T15:01:40;5.97;;;1.70;;
71048;SDS011;58704;53.358;-6.238;2023-04-24T15:04:07;7.85;;;2.00;;
71048;SDS011;58704;53.358;-6.238;2023-04-24T15:06:32;8.17;;;1.73;;
71048;SDS011;58704;53.358;-6.238;2023-04-24T15:08:58;5.47;;;1.70;;
71048;SDS011;58704;53.358;-6.238;2023-04-24T15:11:23;3.92;;;1.50;;
71048;SDS011;58704;53.358;-6.238;2023-04-24T15:13:50;6.70;;;2.73;;
71048;SDS011;58704;53.358;-6.238;2023-04-24T15:16:15;4.28;;;1.48;;
71048;SDS011;58704;53.358;-6.238;2023-04-24T15:18:41;7.97;;;1.93;;
71048;SDS011;58704;53.358;-6.238;2023-04-24T15:21:06;5.07;;;1.92;;
71048;SDS011;58704;53.358;-6.238;2023-04-24T15:23:32;8.73;;;2.40;;
71048;SDS011;58704;53.358;-6.238;2023-04-24T15:25:57;4.83;;;1.97;;
71048;SDS011;58704;53.358;-6.238;2023-04-24T15:28:23;5.20;;;2.20;;
71048;SDS011;58704;53.358;-6.238;2023-04-24T15:30:49;6.55;;;2.30;;
71048;SDS011;58704;53.358;-6.238;2023-04-24T15:33:15;8.52;;;3.30;;
71048;SDS011;58704;53.358;-6.238;2023-04-24T15:35:40;9.83;;;3.63;;
71048;SDS011;58704;53.358;-6.238;2023-04-24T15:38:06;6.47;;;2.97;;
71048;SDS011;58704;53.358;-6.238;2023-04-24T15:40:31;7.87;;;2.57;;
71048;SDS011;58704;53.358;-6.238;2023-04-24T15:42:57;7.07;;;3.50;;
71048;SDS011;58704;53.358;-6.238;2023-04-24T15:45:22;6.13;;;1.73;;
71048;SDS011;58704;53.358;-6.238;2023-04-24T15:47:48;7.03;;;2.10;;
71048;SDS011;58704;53.358;-6.238;2023-04-24T15:50:15;6.60;;;2.20;;
71048;SDS011;58704;53.358;-6.238;2023-04-24T15:52:41;5.90;;;1.90;;
71048;SDS011;58704;53.358;-6.238;2023-04-24T15:55:07;5.57;;;2.40;;
71048;SDS011;58704;53.358;-6.238;2023-04-24T15:57:33;8.82;;;3.75;;
71048;SDS011;58704;53.358;-6.238;2023-04-24T15:59:58;5.13;;;1.97;;
71048;SDS011;58704;53.358;-6.238;2023-04-24T16:02:24;6.70;;;3.28;;
71048;SDS011;58704;53.358;-6.238;2023-04-24T16:04:50;9.80;;;2.83;;
71048;SDS011;58704;53.358;-6.238;2023-04-24T16:07:16;5.68;;;1.98;;
71048;SDS011;58704;53.358;-6.238;2023-04-24T16:09:44;6.88;;;3.17;;
71048;SDS011;58704;53.358;-6.238;2023-04-24T16:12:10;6.47;;;3.20;;
71048;SDS011;58704;53.358;-6.238;2023-04-24T16:14:36;7.60;;;3.40;;
71048;SDS011;58704;53.358;-6.238;2023-04-24T16:17:02;6.65;;;3.20;;
71048;SDS011;58704;53.358;-6.238;2023-04-24T16:19:27;3.37;;;1.70;;
71048;SDS011;58704;53.358;-6.238;2023-04-24T16:21:53;3.43;;;2.30;;
71048;SDS011;58704;53.358;-6.238;2023-04-24T16:24:20;8.32;;;2.70;;
71048;SDS011;58704;53.358;-6.238;2023-04-24T16:26:49;8.73;;;2.97;;
71048;SDS011;58704;53.358;-6.238;2023-04-24T16:29:15;10.82;;;3.40;;
71048;SDS011;58704;53.358;-6.238;2023-04-24T16:31:41;6.90;;;2.90;;
71048;SDS011;58704;53.358;-6.238;2023-04-24T16:34:06;6.18;;;2.35;;
71048;SDS011;58704;53.358;-6.238;2023-04-24T16:36:32;4.40;;;2.37;;
71048;SDS011;58704;53.358;-6.238;2023-04-24T16:38:57;5.57;;;3.03;;
71048;SDS011;58704;53.358;-6.238;2023-04-24T16:41:25;8.47;;;3.90;;
71048;SDS011;58704;53.358;-6.238;2023-04-24T16:43:51;6.35;;;3.22;;
71048;SDS011;58704;53.358;-6.238;2023-04-24T16:46:17;8.32;;;2.28;;
71048;SDS011;58704;53.358;-6.238;2023-04-24T16:48:43;4.03;;;2.53;;
71048;SDS011;58704;53.358;-6.238;2023-04-24T16:51:08;8.15;;;2.13;;
71048;SDS011;58704;53.358;-6.238;2023-04-24T16:53:33;4.07;;;1.60;;
71048;SDS011;58704;53.358;-6.238;2023-04-24T16:55:59;3.53;;;1.83;;
71048;SDS011;58704;53.358;-6.238;2023-04-24T16:58:24;6.60;;;2.57;;
71048;SDS011;58704;53.358;-6.238;2023-04-24T17:00:50;8.48;;;2.75;;
71048;SDS011;58704;53.358;-6.238;2023-04-24T17:03:15;7.67;;;3.50;;
71048;SDS011;58704;53.358;-6.238;2023-04-24T17:05:41;8.00;;;2.63;;
71048;SDS011;58704;53.358;-6.238;2023-04-24T17:08:06;8.47;;;2.63;;
71048;SDS011;58704;53.358;-6.238;2023-04-24T17:10:31;7.13;;;2.80;;
71048;SDS011;58704;53.358;-6.238;2023-04-24T17:12:57;10.57;;;2.93;;
71048;SDS011;58704;53.358;-6.238;2023-04-24T17:15:23;6.15;;;2.88;;
71048;SDS011;58704;53.358;-6.238;2023-04-24T17:17:49;7.33;;;2.67;;
71048;SDS011;58704;53.358;-6.238;2023-04-24T17:20:15;5.72;;;2.60;;
71048;SDS011;58704;53.358;-6.238;2023-04-24T17:22:40;7.77;;;3.60;;
71048;SDS011;58704;53.358;-6.238;2023-04-24T17:25:06;8.97;;;2.73;;
71048;SDS011;58704;53.358;-6.238;2023-04-24T17:27:33;5.47;;;2.40;;
71048;SDS011;58704;53.358;-6.238;2023-04-24T17:29:58;3.37;;;1.63;;
71048;SDS011;58704;53.358;-6.238;2023-04-24T17:32:23;7.53;;;2.27;;
71048;SDS011;58704;53.358;-6.238;2023-04-24T17:34:49;5.05;;;2.00;;
71048;SDS011;58704;53.358;-6.238;2023-04-24T17:37:15;8.13;;;2.27;;
71048;SDS011;58704;53.358;-6.238;2023-04-24T17:39:43;4.97;;;1.70;;
71048;SDS011;58704;53.358;-6.238;2023-04-24T17:42:09;7.28;;;2.10;;